Time;durP1;ratioP1;P1;durP2;ratioP2;P2;SDS_P1;SDS_P2;PMS_P1;PMS_P2;Temp;Humidity;BMP_temperature;BMP_pressure;BME280_temperature;BME280_humidity;BME280_pressure;Samples;Min_cycle;Max_cycle;Signal;HPM_P1;HPM_P2
2023/03/03 00:01:44;;;;;;;577.90;39.15;;;1.50;99.90;;;-0.85;100.00;101897.66;5049282;28;20053;-78
2023/03/03 00:04:10;;;;;;;543.65;44.25;;;0.90;99.90;;;-0.80;100.00;101895.16;5039151;28;20136;-77
2023/03/03 00:06:38;;;;;;;445.58;30.67;;;0.90;99.90;;;-0.94;100.00;101891.47;4997143;28;20043;-78
2023/03/03 00:09:04;;;;;;;439.40;26.65;;;0.80;99.90;;;-1.12;100.00;101895.44;5024528;28;20033;-77
2023/03/03 00:11:29;;;;;;;619.58;33.22;;;0.70;99.90;;;-1.30;100.00;101893.31;5020227;28;20064;-77
2023/03/03 00:13:56;;;;;;;510.98;35.45;;;0.60;99.90;;;-1.17;100.00;101899.59;5049698;28;20029;-77
2023/03/03 00:16:36;;;;;;;496.02;34.17;;;0.70;99.90;;;-1.05;100.00;101899.88;5055635;28;20033;-77
2023/03/03 00:19:11;;;;;;;485.73;38.95;;;0.70;99.90;;;-0.97;100.00;101899.13;5007059;28;20064;-77
2023/03/03 00:21:44;;;;;;;443.98;33.08;;;0.70;99.90;;;-0.94;100.00;101896.63;4989345;28;20564;-77
2023/03/03 00:24:15;;;;;;;692.15;40.25;;;0.80;99.90;;;-0.97;100.00;101899.13;5048308;28;20043;-76
2023/03/03 00:26:46;;;;;;;653.00;40.75;;;0.80;99.90;;;-0.99;100.00;101904.28;5035856;28;20508;-76
2023/03/03 00:29:34;;;;;;;406.55;35.05;;;0.70;99.90;;;-0.95;100.00;101894.88;5067102;28;20044;-77
2023/03/03 00:32:14;;;;;;;444.15;35.35;;;0.80;99.90;;;-0.92;100.00;101895.81;5018180;28;20048;-77
2023/03/03 00:34:41;;;;;;;518.40;34.22;;;0.80;99.90;;;-0.89;100.00;101897.56;5044672;28;20091;-77
2023/03/03 00:37:39;;;;;;;533.67;30.27;;;0.70;99.90;;;-1.04;100.00;101901.63;5031687;28;20028;-77
2023/03/03 00:40:15;;;;;;;638.28;38.15;;;0.70;99.90;;;-1.13;100.00;101893.66;5044643;28;20500;-76
2023/03/03 00:42:57;;;;;;;400.42;29.02;;;0.60;99.90;;;-1.16;100.00;101885.00;5031577;28;20041;-77
2023/03/03 00:45:41;;;;;;;484.25;25.75;;;0.60;99.90;;;-1.22;100.00;101883.16;5038633;28;20071;-77
2023/03/03 00:48:39;;;;;;;333.50;19.67;;;0.50;99.90;;;-1.43;100.00;101886.16;5005055;28;20031;-77
2023/03/03 00:51:27;;;;;;;428.17;24.92;;;0.30;99.90;;;-1.60;100.00;101893.53;5029906;28;20035;-77
2023/03/03 00:53:55;;;;;;;444.10;26.98;;;0.30;99.90;;;-1.59;100.00;101889.25;5034543;28;20044;-77
2023/03/03 00:56:21;;;;;;;550.42;33.95;;;0.30;99.90;;;-1.51;100.00;101888.59;4998330;28;20048;-77
2023/03/03 00:58:47;;;;;;;249.77;14.93;;;0.30;99.90;;;-1.56;100.00;101884.16;5006995;28;20044;-78
2023/03/03 01:01:14;;;;;;;462.23;26.60;;;0.20;99.90;;;-1.60;100.00;101890.94;5025226;28;20118;-78
2023/03/03 01:03:42;;;;;;;536.35;32.60;;;0.30;99.90;;;-1.46;100.00;101880.94;5022471;28;20052;-77
2023/03/03 01:06:10;;;;;;;496.02;34.33;;;0.30;99.90;;;-1.37;100.00;101886.28;5059801;28;20419;-77
2023/03/03 01:08:36;;;;;;;389.75;32.20;;;0.40;99.90;;;-1.28;100.00;101885.59;5012870;28;20065;-78
2023/03/03 01:11:11;;;;;;;512.38;33.50;;;0.40;99.90;;;-1.21;100.00;101879.72;5020657;28;20025;-77
2023/03/03 01:13:40;;;;;;;588.75;36.17;;;0.50;99.90;;;-1.15;100.00;101885.00;5060783;28;20114;-77
2023/03/03 01:16:06;;;;;;;572.58;34.70;;;0.50;99.90;;;-1.14;100.00;101891.94;5012196;28;20032;-77
2023/03/03 01:18:33;;;;;;;324.38;26.15;;;0.50;99.90;;;-1.26;100.00;101889.09;5003386;28;20032;-77
2023/03/03 01:21:04;;;;;;;429.23;32.47;;;0.40;99.90;;;-1.43;100.00;101888.72;4986046;28;20115;-77
2023/03/03 01:23:30;;;;;;;487.95;34.72;;;0.40;99.90;;;-1.43;100.00;101885.28;5000867;28;20034;-77
2023/03/03 01:25:56;;;;;;;197.73;18.45;;;0.40;99.90;;;-1.44;100.00;101876.66;5042506;28;20039;-78
2023/03/03 01:28:22;;;;;;;337.70;25.17;;;0.30;99.90;;;-1.45;100.00;101865.47;5028017;28;20400;-78
2023/03/03 01:30:48;;;;;;;187.07;15.93;;;0.30;99.90;;;-1.55;100.00;101868.69;5029224;28;20040;-78
2023/03/03 01:33:22;;;;;;;336.60;28.30;;;0.30;99.90;;;-1.52;100.00;101866.16;5002686;28;22267;-78
2023/03/03 01:35:48;;;;;;;417.10;28.25;;;0.30;99.90;;;-1.49;100.00;101876.56;4997740;28;20496;-77
2023/03/03 01:38:15;;;;;;;214.07;20.70;;;0.30;99.90;;;-1.53;100.00;101871.31;5027868;28;20089;-78
2023/03/03 01:40:41;;;;;;;368.88;29.00;;;0.20;99.90;;;-1.56;100.00;101885.00;5000737;28;20033;-77
2023/03/03 01:43:11;;;;;;;272.60;22.52;;;0.20;99.90;;;-1.55;100.00;101876.44;5020749;28;20047;-79
2023/03/03 01:45:46;;;;;;;182.43;16.45;;;0.20;99.90;;;-1.62;100.00;101866.81;5011949;28;20048;-77
2023/03/03 01:48:31;;;;;;;242.57;19.60;;;0.20;99.90;;;-1.67;100.00;101865.84;5044261;28;20032;-78
2023/03/03 01:51:27;;;;;;;286.40;23.38;;;0.20;99.90;;;-1.58;100.00;101863.44;5031650;28;20087;-77
2023/03/03 01:54:13;;;;;;;419.05;34.95;;;0.20;99.90;;;-1.54;100.00;101872.13;5033399;28;20032;-77
2023/03/03 01:56:41;;;;;;;;;;;0.20;99.90;;;-1.56;100.00;101876.41;5045067;28;20053;-78
2023/03/03 01:59:20;;;;;;;280.38;20.92;;;0.20;99.90;;;-1.63;100.00;101866.78;5012405;28;19991;-78
2023/03/03 02:01:52;;;;;;;365.55;27.63;;;0.20;99.90;;;-1.60;100.00;101854.78;5012370;28;21183;-78
2023/03/03 02:04:18;;;;;;;228.00;19.42;;;0.20;99.90;;;-1.58;100.00;101871.19;5012460;28;20041;-77
2023/03/03 02:06:56;;;;;;;431.35;29.63;;;0.20;99.90;;;-1.55;100.00;101879.03;4981721;28;20037;-77
2023/03/03 02:09:50;;;;;;;171.35;17.30;;;0.20;99.90;;;-1.63;100.00;101888.31;5025192;28;20033;-77
2023/03/03 02:12:19;;;;;;;157.50;16.13;;;0.20;99.90;;;-1.68;100.00;101887.34;5000954;28;20082;-78
2023/03/03 02:14:45;;;;;;;227.18;18.55;;;0.10;99.90;;;-1.68;100.00;101879.59;5022466;28;20041;-78
2023/03/03 02:17:11;;;;;;;204.93;17.80;;;0.20;99.90;;;-1.62;100.00;101866.81;5015914;28;20062;-77
2023/03/03 02:20:05;;;;;;;273.27;20.92;;;0.20;99.90;;;-1.56;100.00;101868.66;5015789;28;20617;-78
2023/03/03 02:22:50;;;;;;;282.13;24.30;;;0.20;99.90;;;-1.50;100.00;101869.66;5005696;28;20041;-76
2023/03/03 02:25:40;;;;;;;236.73;18.85;;;0.20;99.90;;;-1.57;100.00;101872.94;5025560;28;20476;-78
2023/03/03 02:28:06;;;;;;;159.43;16.80;;;0.30;99.90;;;-1.55;100.00;101876.44;5007933;28;20060;-78
2023/03/03 02:30:39;;;;;;;263.52;22.02;;;0.30;99.90;;;-1.45;100.00;101883.56;5006415;28;20040;-77
2023/03/03 02:33:06;;;;;;;153.00;16.80;;;0.30;99.90;;;-1.45;100.00;101875.81;5003055;28;20056;-78
2023/03/03 02:35:46;;;;;;;174.98;18.70;;;0.30;99.90;;;-1.43;100.00;101872.38;5016135;28;20036;-77
2023/03/03 02:38:41;;;;;;;183.05;18.38;;;0.30;99.90;;;-1.39;100.00;101872.47;5022904;28;20911;-77
2023/03/03 02:41:45;;;;;;;292.88;23.88;;;0.40;99.90;;;-1.33;100.00;101874.31;5003622;28;20060;-77
2023/03/03 02:44:17;;;;;;;361.27;31.30;;;0.40;99.90;;;-1.25;100.00;101880.50;5036618;28;20124;-78
2023/03/03 02:46:47;;;;;;;259.17;19.58;;;0.50;99.90;;;-1.21;100.00;101877.13;5027043;28;20040;-77
2023/03/03 02:49:18;;;;;;;326.08;24.92;;;0.50;99.90;;;-1.28;100.00;101865.78;5003760;28;20039;-78
2023/03/03 02:51:44;;;;;;;393.15;29.17;;;0.50;99.90;;;-1.25;100.00;101854.66;5019100;28;20055;-78
2023/03/03 02:54:12;;;;;;;302.92;25.42;;;0.50;99.90;;;-1.26;100.00;101856.34;5035129;28;20051;-78
2023/03/03 02:56:38;;;;;;;262.48;22.55;;;0.50;99.90;;;-1.22;100.00;101849.56;5048691;28;20029;-78
2023/03/03 02:59:05;;;;;;;240.95;27.88;;;0.60;99.90;;;-1.11;100.00;101844.59;5052162;28;20033;-77
2023/03/03 03:01:35;;;;;;;175.95;17.65;;;0.60;99.90;;;-1.06;100.00;101837.78;5010131;28;20043;-77
2023/03/03 03:04:18;;;;;;;338.45;29.83;;;0.70;99.90;;;-0.99;100.00;101828.44;5029705;28;20085;-77
2023/03/03 03:06:44;;;;;;;156.45;25.95;;;0.70;99.90;;;-1.01;100.00;101832.72;5018356;28;20033;-78
2023/03/03 03:09:12;;;;;;;187.85;27.52;;;0.70;99.90;;;-0.96;100.00;101833.66;5042355;28;20046;-78
2023/03/03 03:11:46;;;;;;;297.00;26.45;;;0.70;99.90;;;-0.97;100.00;101825.06;4986256;28;20453;-78
2023/03/03 03:14:14;;;;;;;146.15;25.73;;;0.80;99.90;;;-0.89;100.00;101828.63;4972992;28;20052;-78
2023/03/03 03:16:40;;;;;;;282.88;25.55;;;0.80;99.90;;;-0.91;100.00;101826.84;4990439;28;20079;-78
2023/03/03 03:19:09;;;;;;;321.42;29.67;;;0.80;99.90;;;-0.92;100.00;101831.16;4984593;28;20161;-78
2023/03/03 03:21:36;;;;;;;355.95;32.65;;;0.80;99.90;;;-0.88;100.00;101839.88;4968800;28;20029;-77
2023/03/03 03:24:02;;;;;;;237.93;28.88;;;0.80;99.90;;;-0.77;100.00;101830.56;5024582;28;20123;-77
2023/03/03 03:26:27;;;;;;;252.57;21.98;;;0.90;99.90;;;-0.80;100.00;101827.91;5012218;28;20096;-78
2023/03/03 03:28:53;;;;;;;383.73;30.02;;;0.90;99.90;;;-0.78;100.00;101810.72;5008971;28;20460;-77
2023/03/03 03:31:20;;;;;;;290.05;29.95;;;0.90;99.90;;;-0.68;100.00;101802.28;5005513;28;20024;-78
2023/03/03 03:33:56;;;;;;;382.48;33.08;;;1.00;99.90;;;-0.64;100.00;101804.06;5021572;28;20091;-78
2023/03/03 03:36:22;;;;;;;340.00;28.63;;;1.00;99.90;;;-0.63;100.00;101800.66;5016715;28;20031;-77
2023/03/03 03:38:47;;;;;;;367.90;31.60;;;1.00;99.90;;;-0.57;100.00;101799.00;5010150;28;20046;-78
2023/03/03 03:41:13;;;;;;;566.13;34.72;;;1.00;99.90;;;-0.57;100.00;101804.19;5002003;28;20056;-78
2023/03/03 03:43:46;;;;;;;351.83;27.85;;;1.10;99.90;;;-0.61;100.00;101808.41;4993230;28;20044;-77
2023/03/03 03:46:12;;;;;;;538.88;30.98;;;1.10;99.90;;;-0.59;100.00;101808.44;5004770;28;20463;-78
2023/03/03 03:48:38;;;;;;;422.27;28.20;;;1.00;99.90;;;-0.65;100.00;101806.63;5022553;28;23125;-77
2023/03/03 03:51:04;;;;;;;454.77;24.80;;;1.00;99.90;;;-0.71;100.00;101812.59;4993269;28;20032;-76
2023/03/03 03:53:38;;;;;;;432.88;25.50;;;1.00;99.90;;;-0.75;100.00;101812.50;5022911;28;20041;-77
2023/03/03 03:56:04;;;;;;;332.23;20.77;;;1.00;99.90;;;-0.75;100.00;101805.59;5009468;28;20051;-77
2023/03/03 03:58:30;;;;;;;310.38;27.60;;;1.00;99.90;;;-0.74;100.00;101803.88;4988781;28;20051;-77
2023/03/03 04:01:05;;;;;;;489.60;27.83;;;1.00;99.90;;;-0.72;100.00;101803.06;4973338;28;20040;-78
2023/03/03 04:03:31;;;;;;;242.15;18.30;;;1.00;99.90;;;-0.76;100.00;101809.03;4979847;28;20045;-76
2023/03/03 04:05:57;;;;;;;445.70;28.42;;;1.00;99.90;;;-0.76;100.00;101809.03;5022316;28;20036;-77
2023/03/03 04:08:23;;;;;;;402.27;26.77;;;1.00;99.90;;;-0.72;100.00;101813.41;4987733;28;20115;-77
2023/03/03 04:10:48;;;;;;;398.92;30.77;;;1.00;99.90;;;-0.63;100.00;101805.81;4984961;28;20051;-77
2023/03/03 04:13:22;;;;;;;286.02;29.10;;;1.10;99.90;;;-0.56;100.00;101814.56;5013724;28;20040;-78
2023/03/03 04:15:48;;;;;;;305.77;30.80;;;1.10;99.90;;;-0.53;100.00;101805.97;5003802;28;20052;-77
2023/03/03 04:18:13;;;;;;;390.17;23.17;;;1.10;99.90;;;-0.60;100.00;101807.59;5019588;28;20037;-77
2023/03/03 04:20:39;;;;;;;575.05;34.75;;;1.10;99.90;;;-0.67;100.00;101804.03;5017107;28;20046;-77
2023/03/03 04:23:11;;;;;;;599.55;36.70;;;1.10;99.90;;;-0.59;100.00;101806.72;5008634;28;20040;-78
2023/03/03 04:25:36;;;;;;;360.52;32.85;;;1.10;99.90;;;-0.53;100.00;101806.84;5035025;28;20107;-78
2023/03/03 04:28:02;;;;;;;587.30;37.08;;;1.20;99.90;;;-0.48;100.00;101796.56;5024453;28;20079;-77
2023/03/03 04:30:28;;;;;;;653.28;40.20;;;1.10;99.90;;;-0.54;100.00;101801.63;5031027;28;20061;-77
2023/03/03 04:32:54;;;;;;;607.83;35.35;;;1.20;99.90;;;-0.49;100.00;101800.00;4992556;28;20029;-77
2023/03/03 04:35:19;;;;;;;645.90;38.00;;;1.20;99.90;;;-0.51;100.00;101801.69;4959767;28;20031;-77
2023/03/03 04:37:52;;;;;;;458.30;32.33;;;1.10;99.90;;;-0.52;100.00;101799.94;4973246;28;20119;-77
2023/03/03 04:40:18;;;;;;;630.63;36.25;;;1.20;99.90;;;-0.50;100.00;101800.84;4979083;28;20045;-78
2023/03/03 04:42:44;;;;;;;445.58;33.40;;;1.20;99.90;;;-0.50;100.00;101793.94;5047578;28;20040;-77
2023/03/03 04:45:11;;;;;;;414.92;25.58;;;1.20;99.90;;;-0.48;100.00;101793.97;4982867;28;20031;-78
2023/03/03 04:47:46;;;;;;;453.58;37.75;;;1.20;99.90;;;-0.54;100.00;101788.69;5009177;28;20052;-78
2023/03/03 04:50:12;;;;;;;602.20;39.83;;;1.10;99.90;;;-0.58;100.00;101795.56;4989146;28;20017;-77
2023/03/03 04:52:38;;;;;;;475.73;38.65;;;1.10;99.90;;;-0.51;100.00;101796.53;4982933;28;20099;-76
2023/03/03 04:55:05;;;;;;;681.67;42.42;;;1.20;99.90;;;-0.53;100.00;101793.03;5023746;28;20037;-78
2023/03/03 04:57:36;;;;;;;541.47;40.03;;;1.10;99.90;;;-0.57;100.00;101793.84;5017606;28;20033;-78
2023/03/03 05:00:03;;;;;;;575.40;42.92;;;1.10;99.90;;;-0.53;100.00;101793.03;5026512;28;20066;-76
2023/03/03 05:02:30;;;;;;;512.33;42.08;;;1.20;99.90;;;-0.44;100.00;101785.41;5029612;28;20045;-77
2023/03/03 05:04:56;;;;;;;531.92;32.22;;;1.20;99.90;;;-0.46;100.00;101787.09;5000751;28;20036;-78
2023/03/03 05:07:30;;;;;;;652.88;45.03;;;1.20;99.90;;;-0.39;100.00;101794.09;5029690;28;20486;-77
2023/03/03 05:09:56;;;;;;;748.03;43.08;;;1.30;99.90;;;-0.36;100.00;101796.75;4963770;28;20505;-77
2023/03/03 05:12:22;;;;;;;638.70;45.30;;;1.30;99.90;;;-0.37;100.00;101797.59;4991618;28;20062;-78
2023/03/03 05:14:48;;;;;;;564.17;40.58;;;1.30;99.90;;;-0.34;100.00;101797.66;5013443;28;20567;-78
2023/03/03 05:17:23;;;;;;;587.00;39.25;;;1.30;99.90;;;-0.38;100.00;101795.88;5002845;28;20039;-78
2023/03/03 05:19:48;;;;;;;633.38;44.30;;;1.30;99.90;;;-0.42;100.00;101794.06;4962045;28;20057;-77
2023/03/03 05:22:14;;;;;;;592.10;42.60;;;1.30;99.90;;;-0.38;100.00;101800.19;4947811;28;20033;-77
2023/03/03 05:24:41;;;;;;;754.10;44.95;;;1.30;99.90;;;-0.40;100.00;101801.88;4965966;28;20025;-77
2023/03/03 05:27:15;;;;;;;727.17;45.22;;;1.30;99.90;;;-0.38;100.00;101811.38;4984908;28;20045;-78
2023/03/03 05:29:41;;;;;;;642.15;43.45;;;1.30;99.90;;;-0.36;100.00;101804.53;4997322;28;20108;-78
2023/03/03 05:32:07;;;;;;;856.78;50.55;;;1.30;99.90;;;-0.33;100.00;101803.69;5004029;28;20119;-78
2023/03/03 05:34:33;;;;;;;727.40;40.80;;;1.30;99.90;;;-0.43;100.00;101798.38;5019964;28;20064;-77
2023/03/03 05:37:05;;;;;;;520.17;30.23;;;1.20;99.90;;;-0.45;100.00;101807.84;4988419;28;20037;-77
2023/03/03 05:39:33;;;;;;;690.08;38.13;;;1.20;99.90;;;-0.48;100.00;101810.34;4999908;28;20095;-77
2023/03/03 05:41:59;;;;;;;475.00;26.80;;;1.20;99.90;;;-0.55;100.00;101805.94;5034785;28;20064;-77
2023/03/03 05:44:28;;;;;;;540.83;32.65;;;1.20;99.90;;;-0.62;100.00;101796.34;5011413;28;20029;-77
2023/03/03 05:46:56;;;;;;;664.63;41.17;;;1.10;99.90;;;-0.66;100.00;101797.13;4992326;28;20445;-78
2023/03/03 05:49:22;;;;;;;650.70;43.80;;;1.20;99.90;;;-0.49;100.00;101794.84;5008306;28;20598;-78
2023/03/03 05:51:48;;;;;;;787.17;49.28;;;1.20;99.90;;;-0.40;100.00;101813.09;4984913;28;20041;-76
2023/03/03 05:54:14;;;;;;;725.35;46.42;;;1.30;99.90;;;-0.33;100.00;101807.13;5001510;28;20535;-78
2023/03/03 05:56:39;;;;;;;569.45;41.90;;;1.30;99.90;;;-0.35;100.00;101814.00;5001043;28;20037;-77
2023/03/03 05:59:11;;;;;;;315.45;25.52;;;1.20;99.90;;;-0.52;100.00;101797.34;5014783;28;20097;-77
2023/03/03 06:01:36;;;;;;;538.78;40.13;;;1.20;99.90;;;-0.55;100.00;101797.31;5009734;28;20032;-77
2023/03/03 06:04:02;;;;;;;550.72;32.00;;;1.20;99.90;;;-0.48;100.00;101801.72;5011332;28;20032;-77
2023/03/03 06:06:28;;;;;;;670.47;42.35;;;1.20;99.90;;;-0.40;100.00;101810.50;4985730;28;20775;-77
2023/03/03 06:08:54;;;;;;;802.13;45.22;;;1.20;99.90;;;-0.44;100.00;101806.09;5019539;28;20468;-77
2023/03/03 06:11:20;;;;;;;567.35;43.83;;;1.30;99.90;;;-0.36;100.00;101811.41;4995870;28;20101;-77
2023/03/03 06:13:53;;;;;;;684.88;42.88;;;1.30;99.90;;;-0.32;100.00;101814.09;5014106;28;20029;-78
2023/03/03 06:16:19;;;;;;;722.80;44.10;;;1.30;99.90;;;-0.28;100.00;101815.88;5016215;28;20051;-78
2023/03/03 06:18:45;;;;;;;888.10;48.17;;;;;;;-0.28;100.00;101813.28;4973221;28;20037;-78
2023/03/03 06:21:11;;;;;;;500.40;36.28;;;1.30;99.90;;;-0.26;100.00;101816.75;5002950;28;20133;-76
2023/03/03 06:23:37;;;;;;;704.28;42.78;;;1.30;99.90;;;-0.27;100.00;101814.16;4959229;28;20104;-77
2023/03/03 06:26:10;;;;;;;757.17;42.28;;;1.30;99.90;;;-0.42;100.00;101819.94;5031829;28;20061;-78
2023/03/03 06:28:36;;;;;;;399.73;38.83;;;1.30;99.90;;;-0.35;100.00;101826.09;4997752;28;20521;-77
2023/03/03 06:31:02;;;;;;;888.78;51.95;;;1.30;99.90;;;-0.26;100.00;101827.13;4973587;28;20055;-77
2023/03/03 06:33:28;;;;;;;759.65;43.20;;;1.40;99.90;;;-0.28;100.00;101834.00;4997159;28;20064;-78
2023/03/03 06:35:54;;;;;;;754.65;39.97;;;1.40;99.90;;;-0.26;100.00;101834.88;5031600;28;20081;-77
2023/03/03 06:38:25;;;;;;;766.58;46.63;;;1.30;99.90;;;-0.37;100.00;101839.00;5006606;28;20032;-78
2023/03/03 06:40:51;;;;;;;686.25;43.75;;;1.40;99.90;;;-0.23;100.00;101837.50;4967634;28;20060;-78
2023/03/03 06:43:16;;;;;;;634.13;37.38;;;1.40;99.90;;;-0.34;100.00;101844.25;5017116;28;20082;-78
2023/03/03 06:45:45;;;;;;;758.97;43.25;;;1.30;99.90;;;-0.35;100.00;101850.25;4998424;28;20057;-78
2023/03/03 06:48:11;;;;;;;713.30;41.25;;;1.30;99.90;;;-0.34;100.00;101835.63;4987927;28;20078;-78
2023/03/03 06:50:38;;;;;;;642.90;43.88;;;1.40;99.90;;;-0.16;100.00;101835.03;4993060;28;20028;-77
2023/03/03 06:53:15;;;;;;;814.20;47.55;;;1.50;99.90;;;-0.07;100.00;101840.31;4994289;28;20043;-78
2023/03/03 06:55:43;;;;;;;768.55;45.05;;;1.50;99.90;;;-0.08;100.00;101839.47;5005862;28;20041;-78
2023/03/03 06:58:23;;;;;;;596.75;41.97;;;1.50;99.90;;;0.00;100.00;101839.59;5030723;28;20061;-77
2023/03/03 07:00:58;;;;;;;484.52;35.67;;;1.60;99.90;;;-0.02;100.00;101841.28;5004342;28;20124;-78
2023/03/03 07:03:33;;;;;;;663.03;45.03;;;1.60;99.90;;;0.06;100.00;101847.44;4986238;28;20669;-80
2023/03/03 07:06:00;;;;;;;516.78;38.50;;;1.60;99.90;;;0.11;100.00;101847.47;5058000;28;20065;-75
2023/03/03 07:08:38;;;;;;;473.05;41.20;;;1.70;99.90;;;0.17;100.00;101845.88;5008928;28;21508;-78
2023/03/03 07:11:19;;;;;;;563.20;42.05;;;1.70;99.90;;;0.23;100.00;101842.50;4971368;28;20040;-77
2023/03/03 07:14:17;;;;;;;470.60;38.22;;;1.80;99.90;;;0.22;100.00;101839.88;4980741;28;20706;-78
2023/03/03 07:16:43;;;;;;;571.70;35.70;;;1.80;99.90;;;0.17;100.00;101840.69;5007688;28;20095;-78
2023/03/03 07:19:49;;;;;;;587.75;41.80;;;1.80;99.90;;;0.25;100.00;101850.28;4987139;28;20525;-78
2023/03/03 07:22:19;;;;;;;609.20;43.20;;;1.80;99.90;;;0.26;100.00;101852.00;4997260;28;20444;-77
2023/03/03 07:24:53;;;;;;;580.58;42.88;;;1.90;99.90;;;0.36;100.00;101851.31;4963190;28;20645;-78
2023/03/03 07:27:30;;;;;;;709.75;41.90;;;1.90;99.90;;;0.34;100.00;101853.00;4983493;28;20108;-75
2023/03/03 07:30:28;;;;;;;485.38;33.80;;;1.80;99.90;;;0.14;100.00;101855.31;5000404;28;20082;-79
2023/03/03 07:32:57;;;;;;;557.28;35.08;;;1.80;99.90;;;0.09;100.00;101854.41;4993014;28;20613;-79
2023/03/03 07:35:36;;;;;;;448.17;37.15;;;1.80;99.90;;;0.16;100.00;101857.06;4999541;28;20036;-80
2023/03/03 07:38:13;;;;;;;684.42;44.78;;;1.80;99.90;;;0.27;100.00;101848.59;5013135;28;20068;-79
2023/03/03 07:40:54;;;;;;;640.08;41.50;;;1.90;99.90;;;0.38;100.00;101855.66;4948328;28;20649;-78
2023/03/03 07:43:49;;;;;;;606.10;38.97;;;2.00;99.90;;;0.46;100.00;101852.31;5013103;28;20202;-79
2023/03/03 07:46:41;;;;;;;765.95;44.13;;;2.00;99.90;;;0.46;100.00;101862.69;4976749;28;20091;-78
2023/03/03 07:49:35;;;;;;;313.95;35.53;;;2.00;99.90;;;0.52;100.00;101850.66;4999560;28;20800;-80
2023/03/03 07:52:27;;;;;;;543.20;39.90;;;2.00;99.90;;;0.54;100.00;101840.28;4956920;28;20118;-79
2023/03/03 07:55:34;;;;;;;495.80;35.05;;;2.10;99.90;;;0.57;100.00;101845.53;5000346;28;20032;-79
2023/03/03 07:58:13;;;;;;;503.10;35.78;;;2.10;99.90;;;0.60;100.00;101843.88;5017699;28;20048;-79
2023/03/03 08:00:39;;;;;;;616.65;37.70;;;2.20;99.90;;;0.73;100.00;101851.75;4993773;28;20030;-79
2023/03/03 08:03:20;;;;;;;484.52;32.60;;;;;;;0.81;100.00;101853.59;5019849;28;20040;-78
2023/03/03 08:05:48;;;;;;;584.88;38.20;;;2.30;99.90;;;0.95;100.00;101850.28;5033701;28;20040;-78
2023/03/03 08:08:42;;;;;;;322.08;32.05;;;2.40;99.90;;;1.07;100.00;101841.78;4978651;28;20037;-77
2023/03/03 08:11:10;;;;;;;449.88;35.03;;;2.50;99.90;;;1.14;100.00;101830.59;5013623;28;20142;-78
2023/03/03 08:13:42;;;;;;;273.92;30.75;;;2.60;99.90;;;1.18;100.00;101828.06;4975094;28;20040;-78
2023/03/03 08:16:10;;;;;;;490.13;36.83;;;2.60;99.90;;;1.20;100.00;101831.53;4992094;28;20041;-78
2023/03/03 08:18:49;;;;;;;617.60;41.70;;;2.70;99.90;;;1.27;100.00;101832.47;4990586;28;20050;-79
2023/03/03 08:21:30;;;;;;;434.45;36.28;;;2.70;99.90;;;1.34;100.00;101835.97;4996674;28;20420;-79
2023/03/03 08:23:57;;;;;;;316.77;35.17;;;2.80;99.90;;;1.43;100.00;101828.28;5017553;28;20128;-78
2023/03/03 08:26:30;;;;;;;321.10;26.42;;;2.80;99.90;;;1.46;100.00;101830.91;4976222;28;20555;-79
2023/03/03 08:28:56;;;;;;;470.85;33.13;;;2.80;99.90;;;1.37;100.00;101829.09;4974468;28;20032;-78
2023/03/03 08:31:22;;;;;;;247.88;30.15;;;2.80;99.90;;;1.43;100.00;101831.75;4992328;28;20195;-78
2023/03/03 08:33:50;;;;;;;324.60;33.95;;;2.90;99.90;;;1.52;100.00;101837.88;5021329;28;20058;-79
2023/03/03 08:36:21;;;;;;;292.27;27.38;;;2.90;99.90;;;1.43;100.00;101833.50;4957592;28;20036;-79
2023/03/03 08:38:49;;;;;;;459.88;36.63;;;2.90;99.90;;;1.51;100.00;101830.94;4977754;28;20036;-80
2023/03/03 08:41:15;;;;;;;302.90;32.33;;;3.00;99.90;;;1.68;100.00;101834.53;4990553;28;20039;-78
2023/03/03 08:43:43;;;;;;;348.77;34.45;;;3.10;99.90;;;1.81;100.00;101833.81;5027950;28;20822;-79
2023/03/03 08:46:17;;;;;;;192.65;31.10;;;3.20;99.90;;;1.91;100.00;101836.47;5024464;28;20060;-79
2023/03/03 08:48:42;;;;;;;272.02;33.53;;;3.30;99.90;;;2.00;100.00;101841.69;4976886;28;20033;-78
2023/03/03 08:51:08;;;;;;;220.07;31.85;;;3.40;99.90;;;2.16;100.00;101827.97;4955369;28;20041;-79
2023/03/03 08:53:35;;;;;;;185.60;31.50;;;3.50;99.90;;;2.31;100.00;101840.19;4979003;28;20560;-79
2023/03/03 08:56:05;;;;;;;229.80;31.90;;;3.60;99.90;;;2.39;100.00;101841.06;4992839;28;20067;-79
2023/03/03 08:58:31;;;;;;;197.40;30.95;;;3.70;99.90;;;2.40;100.00;101844.56;4992883;28;20033;-79
2023/03/03 09:00:58;;;;;;;306.40;31.77;;;3.70;99.90;;;2.40;100.00;101844.56;4981241;28;20118;-79
2023/03/03 09:03:24;;;;;;;148.90;29.75;;;3.80;99.90;;;2.45;100.00;101846.28;5011429;28;20059;-78
2023/03/03 09:06:13;;;;;;;209.05;30.42;;;;;;;2.42;100.00;101845.44;5025317;28;20029;-79
2023/03/03 09:08:39;;;;;;;152.65;30.10;;;3.80;99.90;;;2.49;100.00;101852.38;5035866;28;20044;-80
2023/03/03 09:11:20;;;;;;;113.47;26.88;;;3.90;99.90;;;2.64;100.00;101852.44;5027139;28;20040;-78
2023/03/03 09:13:57;;;;;;;109.50;28.27;;;4.00;99.90;;;2.74;100.00;101852.47;4997292;28;20131;-78
2023/03/03 09:16:23;;;;;;;120.35;29.50;;;4.10;99.90;;;2.75;100.00;101849.03;5013932;28;20028;-78
2023/03/03 09:18:49;;;;;;;103.18;29.00;;;4.10;99.90;;;2.75;100.00;101843.81;4989824;28;20044;-80
2023/03/03 09:21:25;;;;;;;79.68;20.63;;;4.00;99.90;;;2.43;99.21;101845.41;5029212;28;20032;-78
2023/03/03 09:24:04;;;;;;;109.53;25.85;;;3.90;99.90;;;2.48;99.03;101845.44;4976034;28;20036;-78
2023/03/03 09:26:45;;;;;;;116.53;27.02;;;3.80;99.90;;;2.34;98.94;101847.97;5031120;28;20092;-78
2023/03/03 09:29:43;;;;;;;116.03;31.55;;;3.80;99.90;;;2.59;99.32;101845.47;5013070;22;20062;-78
2023/03/03 09:32:41;;;;;;;131.82;29.90;;;4.00;99.90;;;2.75;99.57;101844.69;5003440;28;20460;-79
2023/03/03 09:35:42;;;;;;;87.30;28.17;;;4.10;99.90;;;2.83;99.60;101842.09;5043693;28;20064;-80
2023/03/03 09:38:44;;;;;;;104.75;30.70;;;4.20;99.90;;;2.87;99.36;101854.25;5004311;28;20048;-78
2023/03/03 09:41:29;;;;;;;79.55;27.33;;;4.20;99.90;;;2.86;98.84;101849.94;5008832;28;20474;-78
2023/03/03 09:44:16;;;;;;;79.88;28.42;;;4.20;99.90;;;2.86;98.21;101852.53;4985783;28;20083;-78
2023/03/03 09:46:44;;;;;;;;;;;4.20;99.90;;;3.01;98.23;101855.19;5020280;28;20087;-79
2023/03/03 09:49:42;;;;;;;79.22;28.48;;;4.40;99.90;;;3.12;97.91;101843.94;4988598;28;19946;-78
2023/03/03 09:53:04;;;;;;;64.18;25.88;;;4.40;99.90;;;3.15;97.87;101846.53;5016259;28;21262;-77
2023/03/03 09:56:10;;;;;;;68.50;24.88;;;4.50;99.90;;;3.16;97.02;101851.75;5013832;28;20557;-77
2023/03/03 09:58:56;;;;;;;64.93;26.88;;;4.50;99.90;;;3.26;96.43;101858.72;5004084;28;20037;-78
2023/03/03 10:01:36;;;;;;;63.40;27.15;;;4.60;99.90;;;3.37;96.45;101863.94;4990497;28;20045;-78
2023/03/03 10:04:51;;;;;;;76.90;28.67;;;4.70;99.90;;;3.43;95.98;101855.25;5026992;28;20053;-78
2023/03/03 10:07:48;;;;;;;77.53;26.63;;;4.80;99.90;;;3.42;95.58;101862.19;5007547;28;20038;-77
2023/03/03 10:10:42;;;;;;;65.88;25.30;;;4.70;99.90;;;3.28;95.44;101856.09;5046242;22;20040;-78
2023/03/03 10:13:33;;;;;;;53.50;24.42;;;4.70;99.90;;;3.28;95.38;101861.28;5057328;28;20098;-78
2023/03/03 10:16:50;;;;;;;53.38;23.75;;;4.70;99.90;;;3.38;95.80;101863.06;5053864;28;20069;-78
2023/03/03 10:19:36;;;;;;;56.53;25.75;;;4.70;99.90;;;3.44;95.70;101857.88;5070787;28;20440;-79
2023/03/03 10:23:02;;;;;;;54.03;24.60;;;4.70;99.90;;;3.56;95.64;101858.72;4989801;28;20044;-79
2023/03/03 10:25:48;;;;;;;52.72;22.45;;;4.80;99.90;;;3.53;95.66;101857.00;4979809;28;20033;-78